Time;durP1;ratioP1;P1;durP2;ratioP2;P2;SDS_P1;SDS_P2;PMS_P1;PMS_P2;Temp;Humidity;BMP_temperature;BMP_pressure;BME280_temperature;BME280_humidity;BME280_pressure;Samples;Min_cycle;Max_cycle;Signal;HPM_P1;HPM_P2
2022/06/16 00:01:45;;;;;;;;;;;13.20;99.90;;;;;;4976759;28;20434;-76
2022/06/16 00:04:11;;;;;;;;;;;13.20;99.90;;;;;;4993420;28;19929;-76
2022/06/16 00:06:37;;;;;;;;;;;13.30;99.90;;;;;;4991494;28;19937;-76
2022/06/16 00:09:03;;;;;;;;;;;13.20;99.90;;;;;;4979495;28;19929;-76
2022/06/16 00:11:28;;;;;;;;;;;13.30;99.90;;;;;;4994778;28;19959;-76
2022/06/16 00:13:54;;;;;;;;;;;13.20;99.90;;;;;;4995768;28;19937;-76
2022/06/16 00:16:21;;;;;;;;;;;13.00;99.90;;;;;;4994840;28;19929;-76
2022/06/16 00:18:47;;;;;;;;;;;13.00;99.90;;;;;;4998222;28;19925;-76
2022/06/16 00:21:12;;;;;;;;;;;13.10;99.90;;;;;;4991010;28;19929;-76
2022/06/16 00:23:38;;;;;;;;;;;13.10;99.90;;;;;;4978453;28;20076;-77
2022/06/16 00:26:09;;;;;;;;;;;13.10;99.90;;;;;;4993854;28;19941;-76
2022/06/16 00:28:34;;;;;;;;;;;13.10;99.90;;;;;;4993964;28;19934;-76
2022/06/16 00:31:04;;;;;;;;;;;12.90;99.90;;;;;;4991112;28;19929;-77
2022/06/16 00:33:30;;;;;;;;;;;13.00;99.90;;;;;;4993154;28;20414;-76
2022/06/16 00:35:56;;;;;;;;;;;13.20;99.90;;;;;;4994182;28;19939;-76
2022/06/16 00:38:23;;;;;;;;;;;13.30;99.90;;;;;;4976019;28;19929;-76
2022/06/16 00:40:51;;;;;;;;;;;13.30;99.90;;;;;;4999129;28;20209;-77
2022/06/16 00:43:17;;;;;;;;;;;13.10;99.90;;;;;;5011292;28;19929;-76
2022/06/16 00:45:48;;;;;;;;;;;13.00;99.90;;;;;;5015388;28;19948;-76
2022/06/16 00:48:25;;;;;;;;;;;13.10;99.90;;;;;;5012043;28;20185;-76
2022/06/16 00:50:56;;;;;;;;;;;13.00;99.90;;;;;;5014145;28;19979;-76
2022/06/16 00:53:22;;;;;;;;;;;13.10;99.90;;;;;;5013963;28;19936;-76
2022/06/16 00:55:48;;;;;;;;;;;13.00;99.90;;;;;;5012294;28;19928;-76
2022/06/16 00:58:14;;;;;;;;;;;12.90;99.90;;;;;;5012941;28;19936;-76
2022/06/16 01:00:46;;;;;;;;;;;12.90;99.90;;;;;;5014422;28;19932;-76
2022/06/16 01:03:12;;;;;;;;;;;13.10;99.90;;;;;;5016514;28;20035;-77
2022/06/16 01:05:39;;;;;;;;;;;13.10;99.90;;;;;;5015909;28;19929;-77
2022/06/16 01:08:06;;;;;;;;;;;12.90;99.90;;;;;;4996781;28;19932;-77
2022/06/16 01:10:40;;;;;;;;;;;12.90;99.90;;;;;;5016024;28;20485;-77
2022/06/16 01:15:50;;;;;;;;;;;13.00;99.90;;;;;;5020515;28;19929;-77
2022/06/16 01:18:16;;;;;;;;;;;13.00;99.90;;;;;;4998552;28;19936;-77
2022/06/16 01:21:00;;;;;;;;;;;12.90;99.90;;;;;;5017718;28;19929;-77
2022/06/16 01:23:41;;;;;;;;;;;13.00;99.90;;;;;;4999344;28;19929;-77
2022/06/16 01:26:23;;;;;;;;;;;12.90;99.90;;;;;;5015753;28;20736;-78
2022/06/16 01:29:07;;;;;;;;;;;12.80;99.90;;;;;;5017960;28;20359;-77
2022/06/16 01:31:48;;;;;;;;;;;12.70;99.90;;;;;;5018410;28;20496;-77
2022/06/16 01:34:16;;;;;;;;;;;12.70;99.90;;;;;;5018673;28;20386;-77
2022/06/16 01:36:47;;;;;;;;;;;12.60;99.90;;;;;;5018261;28;19960;-77
2022/06/16 01:39:16;;;;;;;;;;;12.80;99.90;;;;;;5015231;28;19930;-77
2022/06/16 01:42:14;;;;;;;;;;;12.80;99.90;;;;;;5017433;28;19990;-77
2022/06/16 01:44:44;;;;;;;;;;;12.80;99.90;;;;;;5019308;28;19929;-77
2022/06/16 01:47:14;;;;;;;;;;;12.80;99.90;;;;;;5020013;28;19971;-77
2022/06/16 01:49:54;;;;;;;;;;;12.80;99.90;;;;;;5013608;28;19935;-77
2022/06/16 01:52:26;;;;;;;;;;;12.90;99.90;;;;;;4998111;28;19990;-77
2022/06/16 01:54:59;;;;;;;;;;;12.90;99.90;;;;;;5012868;28;20465;-77
2022/06/16 01:57:28;;;;;;;;;;;12.90;99.90;;;;;;5007315;28;20031;-77
2022/06/16 01:59:57;;;;;;;;;;;12.80;99.90;;;;;;5015068;28;19940;-77
2022/06/16 02:02:24;;;;;;;;;;;12.60;99.90;;;;;;5016922;28;20090;-77
2022/06/16 02:04:53;;;;;;;;;;;12.60;99.90;;;;;;4996772;28;19972;-77
2022/06/16 02:07:25;;;;;;;;;;;12.60;99.90;;;;;;5019593;28;20129;-77
2022/06/16 02:09:54;;;;;;;;;;;12.50;99.90;;;;;;5015517;28;20006;-77
2022/06/16 02:15:15;;;;;;;;;;;12.30;99.90;;;;;;5015011;28;19925;-77
2022/06/16 02:17:40;;;;;;;;;;;12.10;99.90;;;;;;4997295;28;19983;-77
2022/06/16 02:20:06;;;;;;;;;;;12.20;99.90;;;;;;5015185;28;20695;-77
2022/06/16 02:22:32;;;;;;;;;;;12.20;99.90;;;;;;5016007;28;19929;-77
2022/06/16 02:24:58;;;;;;;;;;;12.30;99.90;;;;;;5014794;28;20376;-77
2022/06/16 02:27:23;;;;;;;;;;;12.30;99.90;;;;;;5016922;28;19983;-77
2022/06/16 02:29:49;;;;;;;;;;;12.30;99.90;;;;;;5017899;28;19926;-77
2022/06/16 02:32:17;;;;;;;;;;;12.30;99.90;;;;;;5018260;28;19932;-77
2022/06/16 02:34:58;;;;;;;;;;;12.40;99.90;;;;;;5015609;28;19998;-77
2022/06/16 02:37:36;;;;;;;;;;;12.30;99.90;;;;;;5017016;28;19925;-77
2022/06/16 02:40:15;;;;;;;;;;;12.10;99.90;;;;;;5012578;28;19928;-77
2022/06/16 02:42:46;;;;;;;;;;;12.20;99.90;;;;;;5015442;28;19933;-77
2022/06/16 02:45:30;;;;;;;;;;;12.10;99.90;;;;;;5013842;28;19931;-77
2022/06/16 02:47:59;;;;;;;;;;;12.20;99.90;;;;;;5015249;28;19929;-77
2022/06/16 02:50:24;;;;;;;;;;;12.30;99.90;;;;;;5014888;28;19939;-77
2022/06/16 02:53:05;;;;;;;;;;;12.20;99.90;;;;;;5016428;28;19929;-77
2022/06/16 02:55:35;;;;;;;;;;;12.30;99.90;;;;;;5014546;28;19935;-77
2022/06/16 02:58:15;;;;;;;;;;;12.30;99.90;;;;;;5015309;28;19928;-77
2022/06/16 03:00:43;;;;;;;;;;;12.20;99.90;;;;;;5019238;28;20382;-78
2022/06/16 03:03:20;;;;;;;;;;;12.20;99.90;;;;;;5001596;28;19929;-77
2022/06/16 03:05:48;;;;;;;;;;;12.10;99.90;;;;;;5001780;28;19928;-77
2022/06/16 03:08:14;;;;;;;;;;;12.10;99.90;;;;;;5022548;28;20010;-77
2022/06/16 03:10:52;;;;;;;;;;;12.00;99.90;;;;;;5025506;28;20328;-76
2022/06/16 03:13:22;;;;;;;;;;;12.10;99.90;;;;;;5010051;28;20022;-77
2022/06/16 03:15:49;;;;;;;;;;;12.10;99.90;;;;;;5024596;28;19964;-77
2022/06/16 03:18:15;;;;;;;;;;;12.00;99.90;;;;;;5018575;28;19933;-77
2022/06/16 03:20:41;;;;;;;;;;;11.90;99.90;;;;;;5016025;28;20780;-76
2022/06/16 03:23:06;;;;;;;;;;;11.90;99.90;;;;;;5019901;28;19924;-77
2022/06/16 03:25:33;;;;;;;;;;;11.90;99.90;;;;;;5021870;28;19929;-77
2022/06/16 03:27:59;;;;;;;;;;;11.80;99.90;;;;;;5023919;28;19939;-77
2022/06/16 03:30:24;;;;;;;;;;;11.90;99.90;;;;;;5020653;28;19933;-77
2022/06/16 03:32:50;;;;;;;;;;;11.90;99.90;;;;;;5017821;28;19931;-77
2022/06/16 03:35:16;;;;;;;;;;;12.00;99.90;;;;;;5005543;28;19940;-77
2022/06/16 03:37:42;;;;;;;;;;;12.10;99.90;;;;;;5017380;28;19959;-77
2022/06/16 03:40:13;;;;;;;;;;;12.10;99.90;;;;;;5001986;28;19929;-77
2022/06/16 03:42:40;;;;;;;;;;;12.10;99.90;;;;;;4998876;28;19936;-77
2022/06/16 03:45:06;;;;;;;;;;;12.00;99.90;;;;;;4995316;28;20364;-77
2022/06/16 03:47:32;;;;;;;;;;;12.20;99.90;;;;;;4998357;28;20027;-77
2022/06/16 03:49:57;;;;;;;;;;;12.00;99.90;;;;;;4996060;28;20398;-77
2022/06/16 03:52:23;;;;;;;;;;;12.00;99.90;;;;;;4998293;28;20011;-77
2022/06/16 03:54:48;;;;;;;;;;;12.00;99.90;;;;;;5002125;28;19929;-76
2022/06/16 03:57:14;;;;;;;;;;;11.90;99.90;;;;;;4993324;28;20418;-77
2022/06/16 03:59:40;;;;;;;;;;;11.90;99.90;;;;;;4996653;28;19936;-77
2022/06/16 04:02:05;;;;;;;;;;;12.00;99.90;;;;;;4978173;28;20051;-77
2022/06/16 04:04:31;;;;;;;;;;;12.00;99.90;;;;;;4989743;28;19978;-77
2022/06/16 04:06:57;;;;;;;;;;;11.90;99.90;;;;;;4991760;28;19933;-77
2022/06/16 04:09:24;;;;;;;;;;;11.80;99.90;;;;;;4989732;28;20888;-77
2022/06/16 04:11:49;;;;;;;;;;;11.70;99.90;;;;;;4956701;28;19933;-77
2022/06/16 04:14:15;;;;;;;;;;;11.70;99.90;;;;;;4955307;28;19991;-77
2022/06/16 04:16:41;;;;;;;;;;;11.60;99.90;;;;;;4972690;28;20154;-77
2022/06/16 04:19:07;;;;;;;;;;;11.60;99.90;;;;;;4990565;28;19975;-77
2022/06/16 04:21:35;;;;;;;;;;;11.50;99.90;;;;;;4991478;28;19929;-77
2022/06/16 04:24:01;;;;;;;;;;;11.60;99.90;;;;;;4991490;28;19973;-77
2022/06/16 04:26:26;;;;;;;;;;;11.70;99.90;;;;;;4989683;28;20087;-77
2022/06/16 04:28:52;;;;;;;;;;;11.80;99.90;;;;;;4990746;28;19929;-77
2022/06/16 04:31:17;;;;;;;;;;;11.90;99.90;;;;;;4988141;28;19933;-77
2022/06/16 04:33:43;;;;;;;;;;;11.90;99.90;;;;;;4994120;28;19929;-77
2022/06/16 04:36:09;;;;;;;;;;;12.00;99.90;;;;;;4984471;28;19933;-77
2022/06/16 04:38:35;;;;;;;;;;;12.20;99.90;;;;;;5003949;28;19964;-77
2022/06/16 04:41:01;;;;;;;;;;;12.30;99.90;;;;;;5011405;28;19928;-78
2022/06/16 04:43:27;;;;;;;;;;;14.20;99.90;;;;;;5005195;28;19940;-77
2022/06/16 04:45:53;;;;;;;;;;;16.20;99.90;;;;;;5013065;28;20687;-77
2022/06/16 04:48:19;;;;;;;;;;;17.90;99.90;;;;;;4990625;28;19933;-77
2022/06/16 04:50:45;;;;;;;;;;;18.70;99.90;;;;;;5006282;28;20414;-77
2022/06/16 04:53:10;;;;;;;;;;;18.00;99.90;;;;;;4996362;28;19932;-78
2022/06/16 04:55:36;;;;;;;;;;;19.80;99.90;;;;;;5011901;28;19983;-77
2022/06/16 04:58:02;;;;;;;;;;;21.40;99.90;;;;;;5014267;28;19932;-77
2022/06/16 05:00:35;;;;;;;;;;;21.60;99.90;;;;;;5010598;28;19949;-77
2022/06/16 05:03:01;;;;;;;;;;;22.30;99.90;;;;;;5023350;28;19925;-78
2022/06/16 05:05:27;;;;;;;;;;;22.50;99.90;;;;;;5030183;28;20397;-78
2022/06/16 05:07:52;;;;;;;;;;;21.20;99.90;;;;;;5024386;28;20282;-78
2022/06/16 05:10:18;;;;;;;;;;;21.10;99.90;;;;;;5014699;28;20218;-78
2022/06/16 05:12:43;;;;;;;;;;;20.10;99.90;;;;;;5006352;28;20031;-78
2022/06/16 05:15:09;;;;;;;;;;;19.30;99.90;;;;;;5007478;28;19968;-77
2022/06/16 05:17:35;;;;;;;;;;;18.20;99.90;;;;;;5018211;28;19939;-78
2022/06/16 05:20:00;;;;;;;;;;;18.20;99.90;;;;;;4997707;28;20600;-77
2022/06/16 05:22:26;;;;;;;;;;;17.90;99.90;;;;;;5012120;28;19947;-77
2022/06/16 05:24:52;;;;;;;;;;;18.00;99.90;;;;;;5014919;28;20436;-77
2022/06/16 05:27:18;;;;;;;;;;;17.50;99.90;;;;;;5004103;28;19928;-77
2022/06/16 05:29:43;;;;;;;;;;;17.40;99.90;;;;;;5001987;28;20708;-77
2022/06/16 05:32:09;;;;;;;;;;;17.20;99.90;;;;;;5020511;28;19929;-77
2022/06/16 05:34:36;;;;;;;;;;;17.10;99.90;;;;;;5002867;28;19933;-77
2022/06/16 05:37:02;;;;;;;;;;;17.20;99.90;;;;;;5012030;28;19955;-78
2022/06/16 05:39:27;;;;;;;;;;;17.10;99.90;;;;;;5019224;28;20445;-78
2022/06/16 05:41:53;;;;;;;;;;;16.90;99.90;;;;;;5018981;28;20075;-77
2022/06/16 05:44:19;;;;;;;;;;;17.10;99.90;;;;;;5002090;28;20340;-78
2022/06/16 05:46:44;;;;;;;;;;;17.70;99.90;;;;;;5019762;28;19932;-77
2022/06/16 05:49:14;;;;;;;;;;;17.40;99.90;;;;;;5004812;28;20150;-78
2022/06/16 05:51:39;;;;;;;;;;;17.40;99.90;;;;;;5001665;28;19982;-77
2022/06/16 05:54:05;;;;;;;;;;;17.20;99.90;;;;;;5011056;28;19941;-77
2022/06/16 05:56:31;;;;;;;;;;;17.10;99.90;;;;;;5018242;28;19932;-78
2022/06/16 05:58:57;;;;;;;;;;;17.10;99.90;;;;;;5017838;28;19929;-78
2022/06/16 06:01:22;;;;;;;;;;;17.00;99.90;;;;;;5017091;28;19928;-77
2022/06/16 06:03:48;;;;;;;;;;;17.00;99.90;;;;;;5021865;28;20523;-77
2022/06/16 06:06:14;;;;;;;;;;;17.20;99.90;;;;;;5012971;28;19929;-77
2022/06/16 06:18:45;;;;;;;;;;;18.50;99.90;;;;;;5025753;28;20008;-77
2022/06/16 06:21:11;;;;;;;;;;;19.20;99.90;;;;;;5031626;28;19929;-78
2022/06/16 06:23:37;;;;;;;;;;;19.50;99.90;;;;;;5031920;28;19925;-78
2022/06/16 06:26:02;;;;;;;;;;;19.80;99.90;;;;;;5031657;28;19929;-79
2022/06/16 06:28:28;;;;;;;;;;;19.50;99.90;;;;;;5002821;28;21227;-77
2022/06/16 06:30:54;;;;;;;;;;;19.70;99.90;;;;;;5031396;28;19929;-77
2022/06/16 06:33:19;;;;;;;;;;;20.30;99.90;;;;;;5030827;28;19929;-77
2022/06/16 06:35:46;;;;;;;;;;;19.80;99.90;;;;;;5013909;28;20363;-78
2022/06/16 06:38:12;;;;;;;;;;;20.10;99.90;;;;;;5030717;28;20017;-77
2022/06/16 06:40:38;;;;;;;;;;;20.30;99.90;;;;;;5029330;28;20390;-77
2022/06/16 06:43:04;;;;;;;;;;;20.50;99.90;;;;;;5029454;28;19964;-78
2022/06/16 06:45:30;;;;;;;;;;;19.80;99.90;;;;;;5029529;28;20036;-78
2022/06/16 06:47:56;;;;;;;;;;;20.40;99.90;;;;;;5014047;28;19929;-78
2022/06/16 06:50:22;;;;;;;;;;;20.90;99.90;;;;;;5032580;28;19925;-78
2022/06/16 06:52:48;;;;;;;;;;;21.00;99.90;;;;;;5014850;28;20394;-78
2022/06/16 06:55:14;;;;;;;;;;;21.00;99.90;;;;;;5031792;28;19929;-78
2022/06/16 06:57:40;;;;;;;;;;;20.90;99.90;;;;;;5031163;28;20546;-76
2022/06/16 07:00:05;;;;;;;;;;;20.90;99.90;;;;;;5012606;28;19981;-78
2022/06/16 07:02:31;;;;;;;;;;;21.30;99.90;;;;;;5029329;28;20217;-79
2022/06/16 07:04:57;;;;;;;;;;;19.60;99.90;;;;;;5031784;28;20196;-78
2022/06/16 07:07:23;;;;;;;;;;;20.80;99.90;;;;;;5029598;28;20386;-78
2022/06/16 07:09:49;;;;;;;;;;;21.00;99.90;;;;;;5029282;28;20381;-78
2022/06/16 07:12:14;;;;;;;;;;;20.70;99.90;;;;;;5030723;28;19943;-79
2022/06/16 07:14:41;;;;;;;;;;;21.20;99.90;;;;;;5032161;28;19991;-78
2022/06/16 07:17:06;;;;;;;;;;;20.50;99.90;;;;;;5014062;28;19929;-78
2022/06/16 07:19:34;;;;;;;;;;;19.80;99.90;;;;;;5032029;28;19931;-79
2022/06/16 07:22:00;;;;;;;;;;;20.90;99.90;;;;;;5032589;28;20360;-78
2022/06/16 07:24:25;;;;;;;;;;;20.80;99.90;;;;;;5033002;28;19955;-78
2022/06/16 07:26:51;;;;;;;;;;;21.60;99.90;;;;;;5031993;28;19932;-78
2022/06/16 07:29:17;;;;;;;;;;;21.20;99.90;;;;;;5031426;28;20360;-78
2022/06/16 07:31:43;;;;;;;;;;;21.20;99.90;;;;;;5031348;28;20051;-78
2022/06/16 07:34:09;;;;;;;;;;;20.80;99.90;;;;;;5031388;28;19955;-78
2022/06/16 07:36:35;;;;;;;;;;;21.70;99.90;;;;;;5030659;28;20002;-79
2022/06/16 07:39:01;;;;;;;;;;;21.00;99.90;;;;;;5014239;28;20023;-77
2022/06/16 07:41:34;;;;;;;;;;;21.10;99.90;;;;;;5031912;28;19925;-78
2022/06/16 07:44:07;;;;;;;;;;;21.40;99.90;;;;;;5031998;28;19968;-80
2022/06/16 07:46:33;;;;;;;;;;;21.80;99.90;;;;;;5031764;28;19969;-79
2022/06/16 07:48:59;;;;;;;;;;;21.90;99.90;;;;;;5029949;28;19933;-79
2022/06/16 07:51:24;;;;;;;;;;;21.50;99.90;;;;;;5031106;28;19940;-79
2022/06/16 07:53:50;;;;;;;;;;;21.20;99.90;;;;;;5029082;28;21196;-79
2022/06/16 07:56:16;;;;;;;;;;;21.70;99.90;;;;;;5029771;28;19935;-78
2022/06/16 07:58:43;;;;;;;;;;;22.10;99.90;;;;;;5032014;28;19929;-79
2022/06/16 08:01:09;;;;;;;;;;;21.70;99.90;;;;;;5013046;28;20369;-79
2022/06/16 08:03:34;;;;;;;;;;;22.30;99.90;;;;;;5027657;28;19940;-79
2022/06/16 08:06:01;;;;;;;;;;;21.90;99.90;;;;;;5008489;28;20643;-79
2022/06/16 08:08:27;;;;;;;;;;;22.20;99.90;;;;;;5004071;28;19936;-78
2022/06/16 08:10:53;;;;;;;;;;;22.00;99.90;;;;;;5004440;28;19932;-79
2022/06/16 08:13:20;;;;;;;;;;;22.10;99.90;;;;;;5011863;28;19924;-79
2022/06/16 08:15:46;;;;;;;;;;;22.70;99.90;;;;;;5013113;28;20378;-79
2022/06/16 08:18:16;;;;;;;;;;;21.70;99.90;;;;;;5028752;28;19932;-78
2022/06/16 08:20:42;;;;;;;;;;;22.40;99.90;;;;;;5012923;28;20364;-78
2022/06/16 08:23:08;;;;;;;;;;;22.60;99.90;;;;;;5011615;28;19940;-78
2022/06/16 08:25:34;;;;;;;;;;;22.10;99.90;;;;;;5028970;28;19990;-78
2022/06/16 08:28:02;;;;;;;;;;;22.40;99.90;;;;;;5027040;28;20451;-80
2022/06/16 08:30:29;;;;;;;;;;;22.10;99.90;;;;;;5030835;28;19935;-79
2022/06/16 08:32:55;;;;;;;;;;;22.40;99.90;;;;;;5030682;28;19936;-78
2022/06/16 08:35:21;;;;;;;;;;;22.60;99.90;;;;;;5028763;28;19928;-78
2022/06/16 08:37:46;;;;;;;;;;;22.70;99.90;;;;;;5012053;28;19933;-80
2022/06/16 08:40:13;;;;;;;;;;;22.50;99.40;;;;;;4999478;28;19932;-79
2022/06/16 08:42:45;;;;;;;;;;;23.10;99.90;;;;;;5029290;28;19932;-78
2022/06/16 08:45:29;;;;;;;;;;;21.90;96.80;;;;;;5029153;28;20015;-79
2022/06/16 08:48:18;;;;;;;;;;;22.40;99.90;;;;;;5028368;28;20033;-79
2022/06/16 08:50:47;;;;;;;;;;;22.30;98.80;;;;;;5028137;28;19929;-78
2022/06/16 08:53:21;;;;;;;;;;;22.70;99.90;;;;;;5011366;28;19928;-79
2022/06/16 08:55:54;;;;;;;;;;;22.50;99.70;;;;;;5026826;28;19936;-81
2022/06/16 08:58:19;;;;;;;;;;;23.10;99.90;;;;;;5026918;28;19925;-78
2022/06/16 09:00:46;;;;;;;;;;;23.20;99.90;;;;;;5028825;28;20408;-79
2022/06/16 09:03:18;;;;;;;;;;;23.70;99.90;;;;;;5012016;28;19929;-78
2022/06/16 09:05:49;;;;;;;;;;;24.00;99.90;;;;;;5027878;28;20044;-81
2022/06/16 09:08:24;;;;;;;;;;;24.00;99.90;;;;;;4999082;28;19940;-79
2022/06/16 09:11:28;;;;;;;;;;;23.50;99.90;;;;;;5029720;28;20653;-80
2022/06/16 09:14:03;;;;;;;;;;;23.50;99.20;;;;;;4954934;28;19934;-80
2022/06/16 09:16:29;;;;;;;;;;;24.10;99.90;;;;;;4938657;28;19973;-80
2022/06/16 09:19:13;;;;;;;;;;;23.90;97.10;;;;;;4990141;28;19933;-80
2022/06/16 09:21:54;;;;;;;;;;;23.60;99.70;;;;;;5030286;28;19936;-80
2022/06/16 09:24:20;;;;;;;;;;;23.70;96.60;;;;;;5029474;28;19928;-79
2022/06/16 09:26:53;;;;;;;;;;;23.90;98.40;;;;;;5013756;28;19951;-79
2022/06/16 09:29:24;;;;;;;;;;;23.90;98.00;;;;;;5014085;28;20370;-80
2022/06/16 09:31:53;;;;;;;;;;;24.10;99.90;;;;;;5016432;28;20092;-79
2022/06/16 09:37:43;;;;;;;;;;;23.50;97.00;;;;;;5017079;28;19941;-78
2022/06/16 09:40:29;;;;;;;;;;;24.10;98.30;;;;;;5032388;28;19929;-79
2022/06/16 09:43:02;;;;;;;;;;;23.40;95.60;;;;;;4991941;28;20109;-80
2022/06/16 09:45:34;;;;;;;;;;;22.90;95.60;;;;;;5015786;28;19925;-80
2022/06/16 09:48:18;;;;;;;;;;;23.40;94.90;;;;;;5026059;28;19929;-80
2022/06/16 09:50:52;;;;;;;;;;;23.40;99.90;;;;;;5024682;28;20417;-79
2022/06/16 09:53:27;;;;;;;;;;;23.70;98.20;;;;;;5029083;28;20262;-80
2022/06/16 09:56:05;;;;;;;;;;;23.50;99.90;;;;;;5024560;28;19929;-80
2022/06/16 09:58:36;;;;;;;;;;;24.30;99.90;;;;;;5023492;28;19937;-80
2022/06/16 10:01:08;;;;;;;;;;;24.60;98.90;;;;;;5028745;28;20017;-79
2022/06/16 10:03:42;;;;;;;;;;;24.50;98.40;;;;;;5019573;28;20020;-80
2022/06/16 10:06:14;;;;;;;;;;;24.70;96.50;;;;;;5025179;28;20310;-79
2022/06/16 10:08:57;;;;;;;;;;;24.70;97.50;;;;;;5031340;28;19936;-79
2022/06/16 10:11:41;;;;;;;;;;;24.10;93.80;;;;;;5029430;28;20690;-78
2022/06/16 10:14:17;;;;;;;;;;;24.50;94.70;;;;;;5030837;28;19928;-80
2022/06/16 10:16:53;;;;;;;;;;;23.60;93.60;;;;;;5032813;28;20100;-79
2022/06/16 10:19:19;;;;;;;;;;;24.20;98.90;;;;;;5014881;28;20643;-79
2022/06/16 10:21:45;;;;;;;;;;;24.20;98.60;;;;;;5033422;28;19935;-79
2022/06/16 10:24:12;;;;;;;;;;;24.30;98.10;;;;;;5034082;28;19941;-79
2022/06/16 10:26:38;;;;;;;;;;;25.10;98.90;;;;;;5032326;28;19929;-78
2022/06/16 10:29:36;;;;;;;;;;;25.40;98.60;;;;;;5021713;28;19939;-79
2022/06/16 10:32:03;;;;;;;;;;;25.60;96.40;;;;;;4986367;28;19928;-80
2022/06/16 10:34:35;;;;;;;;;;;25.40;97.40;;;;;;5032294;28;19929;-79
2022/06/16 10:37:10;;;;;;;;;;;25.30;95.60;;;;;;5030685;28;20019;-80
2022/06/16 10:39:43;;;;;;;;;;;25.50;97.20;;;;;;5028132;28;19928;-79
2022/06/16 10:42:14;;;;;;;;;;;24.50;98.40;;;;;;5018803;28;19933;-80
2022/06/16 10:44:45;;;;;;;;;;;24.50;96.90;;;;;;5018211;28;21834;-80
2022/06/16 10:47:16;;;;;;;;;;;25.20;98.80;;;;;;5023846;28;19928;-80
2022/06/16 10:49:43;;;;;;;;;;;24.90;95.80;;;;;;5031720;28;19931;-80
2022/06/16 10:52:14;;;;;;;;;;;25.40;97.90;;;;;;5015665;28;19936;-79
2022/06/16 10:54:59;;;;;;;;;;;25.10;95.80;;;;;;5034104;28;19975;-80
2022/06/16 10:57:27;;;;;;;;;;;24.90;97.10;;;;;;5009697;28;20504;-80
2022/06/16 11:00:11;;;;;;;;;;;25.70;94.90;;;;;;5033412;28;20311;-79
2022/06/16 11:02:50;;;;;;;;;;;25.80;94.40;;;;;;5034021;28;19932;-78
2022/06/16 11:05:17;;;;;;;;;;;26.00;95.30;;;;;;5032597;28;20021;-81
2022/06/16 11:07:43;;;;;;;;;;;26.00;95.00;;;;;;5033933;28;20127;-80
2022/06/16 11:10:11;;;;;;;;;;;25.70;90.30;;;;;;5032872;28;19932;-80
2022/06/16 11:12:39;;;;;;;;;;;25.90;95.20;;;;;;5031640;28;19940;-79
2022/06/16 11:15:09;;;;;;;;;;;26.30;95.60;;;;;;5032346;28;19976;-82
2022/06/16 11:17:36;;;;;;;;;;;25.60;92.80;;;;;;5013299;28;19932;-80
2022/06/16 11:20:05;;;;;;;;;;;26.30;90.80;;;;;;5032691;28;19932;-80
2022/06/16 11:22:31;;;;;;;;;;;26.10;94.10;;;;;;5017037;28;19939;-82
2022/06/16 11:24:59;;;;;;;;;;;26.40;92.90;;;;;;5007104;28;20308;-80
2022/06/16 11:27:28;;;;;;;;;;;25.80;93.30;;;;;;5029541;28;20010;-80
2022/06/16 11:29:54;;;;;;;;;;;25.90;93.50;;;;;;5030631;28;19972;-80
2022/06/16 11:32:24;;;;;;;;;;;25.80;95.00;;;;;;5031694;28;20012;-81
2022/06/16 11:34:51;;;;;;;;;;;25.60;94.20;;;;;;5029946;28;19964;-79
2022/06/16 11:37:23;;;;;;;;;;;26.30;95.00;;;;;;5030630;28;19936;-79
2022/06/16 11:40:04;;;;;;;;;;;26.70;95.30;;;;;;5029845;28;20043;-80
2022/06/16 11:42:40;;;;;;;;;;;26.50;92.40;;;;;;5029592;28;20125;-80
2022/06/16 11:45:05;;;;;;;;;;;25.30;93.50;;;;;;5029226;28;19929;-80
2022/06/16 11:47:44;;;;;;;;;;;25.40;95.50;;;;;;5027871;28;19975;-79
2022/06/16 11:50:36;;;;;;;;;;;25.50;94.80;;;;;;5026163;28;19929;-80
2022/06/16 11:53:09;;;;;;;;;;;24.80;93.00;;;;;;5027663;28;19928;-79
2022/06/16 11:55:38;;;;;;;;;;;25.00;97.00;;;;;;5020660;28;19979;-80
2022/06/16 11:58:13;;;;;;;;;;;24.60;94.30;;;;;;5005479;28;20337;-80
2022/06/16 12:01:01;;;;;;;;;;;24.80;94.00;;;;;;5012619;28;20540;-79
2022/06/16 12:03:36;;;;;;;;;;;24.50;96.10;;;;;;5030862;28;19967;-81
2022/06/16 12:06:15;;;;;;;;;;;24.90;95.10;;;;;;5029955;28;19929;-79
2022/06/16 12:08:43;;;;;;;;;;;24.90;96.10;;;;;;5028657;28;19925;-79
2022/06/16 12:11:35;;;;;;;;;;;25.20;96.40;;;;;;5029288;28;20009;-81
2022/06/16 12:14:06;;;;;;;;;;;24.90;95.30;;;;;;4998330;28;19989;-79
2022/06/16 12:16:55;;;;;;;;;;;25.50;94.30;;;;;;5030096;28;19952;-79
2022/06/16 12:19:23;;;;;;;;;;;24.90;92.60;;;;;;5017034;28;19929;-79
2022/06/16 12:21:51;;;;;;;;;;;25.10;98.00;;;;;;5029807;28;20333;-80
2022/06/16 12:24:27;;;;;;;;;;;25.80;97.70;;;;;;5029474;28;19963;-81
2022/06/16 12:26:56;;;;;;;;;;;26.30;95.70;;;;;;5029964;28;19936;-79
2022/06/16 12:29:40;;;;;;;;;;;25.40;90.90;;;;;;5028427;28;20821;-80
2022/06/16 12:32:31;;;;;;;;;;;25.90;96.60;;;;;;5030170;28;19967;-80
2022/06/16 12:34:57;;;;;;;;;;;26.20;97.30;;;;;;5030274;28;19929;-80
2022/06/16 12:37:25;;;;;;;;;;;25.10;94.00;;;;;;5012754;28;19935;-80
2022/06/16 12:39:56;;;;;;;;;;;25.10;93.80;;;;;;5013301;28;20875;-80
2022/06/16 12:42:25;;;;;;;;;;;25.30;98.50;;;;;;5030579;28;19968;-80
2022/06/16 12:45:03;;;;;;;;;;;24.90;93.60;;;;;;5031307;28;19982;-80
2022/06/16 12:47:33;;;;;;;;;;;25.50;94.90;;;;;;5030101;28;20031;-79
2022/06/16 12:50:05;;;;;;;;;;;25.90;96.70;;;;;;5030631;28;21083;-81
2022/06/16 12:52:36;;;;;;;;;;;25.70;91.60;;;;;;5030471;28;20047;-80
2022/06/16 12:55:17;;;;;;;;;;;25.90;93.60;;;;;;5014064;28;20545;-78
2022/06/16 12:57:45;;;;;;;;;;;26.10;93.70;;;;;;5013222;28;20421;-79
2022/06/16 13:00:16;;;;;;;;;;;27.10;94.00;;;;;;5023779;28;19955;-78
2022/06/16 13:02:44;;;;;;;;;;;27.20;93.00;;;;;;5017336;28;19932;-79
2022/06/16 13:05:10;;;;;;;;;;;26.30;92.80;;;;;;4994756;28;19955;-79
2022/06/16 13:07:46;;;;;;;;;;;25.30;91.50;;;;;;5006493;28;20394;-78
2022/06/16 13:10:15;;;;;;;;;;;25.40;94.60;;;;;;5005092;28;21277;-79
2022/06/16 13:12:44;;;;;;;;;;;25.60;91.90;;;;;;5003820;28;19929;-79
2022/06/16 13:15:20;;;;;;;;;;;25.50;93.60;;;;;;4999156;28;19928;-79
2022/06/16 13:17:58;;;;;;;;;;;25.60;95.00;;;;;;5005651;28;20490;-79
2022/06/16 13:20:27;;;;;;;;;;;25.10;92.90;;;;;;5003977;28;19929;-79
2022/06/16 13:22:55;;;;;;;;;;;26.50;95.10;;;;;;5009310;28;20550;-79
2022/06/16 13:25:42;;;;;;;;;;;26.10;96.40;;;;;;5014002;28;19967;-78
2022/06/16 13:28:24;;;;;;;;;;;26.40;95.90;;;;;;4977271;28;19929;-79
2022/06/16 13:31:08;;;;;;;;;;;26.50;93.20;;;;;;5008815;28;19932;-79
2022/06/16 13:33:43;;;;;;;;;;;26.30;95.30;;;;;;5007418;28;19935;-79
2022/06/16 13:36:11;;;;;;;;;;;26.50;95.60;;;;;;4996515;28;19928;-80
2022/06/16 13:38:39;;;;;;;;;;;26.60;94.20;;;;;;5010361;28;19928;-80
2022/06/16 13:41:34;;;;;;;;;;;27.10;92.60;;;;;;5010241;28;19936;-79
2022/06/16 13:44:14;;;;;;;;;;;25.90;94.90;;;;;;4982764;28;22117;-80
2022/06/16 13:46:46;;;;;;;;;;;25.80;95.50;;;;;;4986178;28;19940;-79
2022/06/16 13:49:24;;;;;;;;;;;25.20;95.50;;;;;;5011708;28;19936;-79
2022/06/16 13:51:50;;;;;;;;;;;25.40;94.60;;;;;;5010240;28;19928;-80
2022/06/16 13:54:16;;;;;;;;;;;25.10;96.90;;;;;;4994101;28;19932;-79
2022/06/16 13:56:44;;;;;;;;;;;24.80;95.10;;;;;;4997654;28;20031;-79
2022/06/16 13:59:09;;;;;;;;;;;25.30;95.10;;;;;;5014100;28;19929;-80
2022/06/16 14:01:55;;;;;;;;;;;25.90;94.90;;;;;;4977856;28;19939;-78
2022/06/16 14:04:23;;;;;;;;;;;26.40;95.00;;;;;;5011034;28;20415;-79
2022/06/16 14:06:50;;;;;;;;;;;26.20;97.00;;;;;;5010078;28;19933;-79
2022/06/16 14:09:37;;;;;;;;;;;26.30;94.70;;;;;;4990544;28;19959;-80
2022/06/16 14:12:05;;;;;;;;;;;26.90;94.00;;;;;;4980658;28;19929;-79
2022/06/16 14:14:51;;;;;;;;;;;26.30;92.80;;;;;;4999327;28;19934;-79
2022/06/16 14:17:29;;;;;;;;;;;25.90;95.10;;;;;;5005829;28;19936;-79
2022/06/16 14:19:56;;;;;;;;;;;25.50;96.30;;;;;;5015290;28;19928;-78
2022/06/16 14:22:22;;;;;;;;;;;24.60;94.80;;;;;;4997629;28;19928;-79
2022/06/16 14:24:54;;;;;;;;;;;25.00;97.10;;;;;;5012270;28;19939;-79
2022/06/16 14:27:39;;;;;;;;;;;25.40;95.50;;;;;;4996942;28;19968;-79
2022/06/16 14:30:07;;;;;;;;;;;25.60;95.60;;;;;;5015744;28;20443;-78
2022/06/16 14:32:37;;;;;;;;;;;26.40;93.60;;;;;;5015786;28;19968;-78
2022/06/16 14:35:03;;;;;;;;;;;26.60;91.70;;;;;;5017738;28;19979;-80
2022/06/16 14:37:32;;;;;;;;;;;26.30;91.50;;;;;;4998142;28;20067;-78
2022/06/16 14:40:14;;;;;;;;;;;26.70;90.90;;;;;;4998952;28;19929;-79
2022/06/16 14:42:42;;;;;;;;;;;26.80;89.70;;;;;;4990553;28;20650;-77
2022/06/16 14:45:30;;;;;;;;;;;26.90;87.90;;;;;;5015070;28;19935;-77
2022/06/16 14:47:58;;;;;;;;;;;26.80;91.10;;;;;;5009557;28;20053;-78
2022/06/16 14:50:26;;;;;;;;;;;27.30;90.80;;;;;;4995736;28;19936;-80
2022/06/16 14:52:54;;;;;;;;;;;27.30;90.70;;;;;;5015673;28;19972;-79